createdAt,value
2022-09-29T00:00:35.550Z,966.73
2022-09-29T00:01:35.554Z,966.72
2022-09-29T00:02:35.508Z,966.70
2022-09-29T00:03:35.559Z,966.73
2022-09-29T00:04:35.488Z,966.77
2022-09-29T00:05:35.497Z,966.74
2022-09-29T00:06:35.549Z,966.75
2022-09-29T00:07:35.487Z,966.76
2022-09-29T00:08:35.439Z,966.76
2022-09-29T00:09:35.449Z,966.78
2022-09-29T00:10:35.419Z,966.79
2022-09-29T00:11:35.416Z,966.81
2022-09-29T00:12:36.146Z,966.83
2022-09-29T00:13:35.408Z,966.82
2022-09-29T00:14:35.376Z,966.82
2022-09-29T00:15:35.378Z,966.84
2022-09-29T00:16:36.336Z,966.86
2022-09-29T00:17:36.178Z,966.83
2022-09-29T00:18:36.076Z,966.89
2022-09-29T00:19:35.326Z,966.84
2022-09-29T00:20:35.309Z,966.83
2022-09-29T00:21:35.314Z,966.79
2022-09-29T00:22:35.296Z,966.82
2022-09-29T00:23:35.686Z,966.79
2022-09-29T00:24:35.257Z,966.83
2022-09-29T00:25:35.267Z,966.85
2022-09-29T00:26:35.247Z,966.85
2022-09-29T00:27:35.247Z,966.83
2022-09-29T00:28:35.216Z,966.81
2022-09-29T00:29:35.217Z,966.82
2022-09-29T00:30:35.187Z,966.79
2022-09-29T00:31:35.282Z,966.79
2022-09-29T00:32:35.190Z,966.80
2022-09-29T00:33:35.166Z,966.80
2022-09-29T00:34:35.151Z,966.77
2022-09-29T00:35:35.159Z,966.84
2022-09-29T00:36:35.130Z,966.80
2022-09-29T00:37:35.825Z,966.81
2022-09-29T00:38:35.115Z,966.82
2022-09-29T00:39:35.108Z,966.81
2022-09-29T00:40:35.140Z,966.81
2022-09-29T00:41:35.076Z,966.76
2022-09-29T00:42:35.044Z,966.80
2022-09-29T00:43:35.056Z,966.75
2022-09-29T00:44:35.026Z,966.74
2022-09-29T00:45:35.085Z,966.74
2022-09-29T00:46:35.006Z,966.74
2022-09-29T00:47:35.004Z,966.75
2022-09-29T00:48:34.982Z,966.77
2022-09-29T00:49:34.986Z,966.80
2022-09-29T00:50:34.966Z,966.75
2022-09-29T00:51:34.966Z,966.80
2022-09-29T00:52:34.937Z,966.77
2022-09-29T00:53:34.934Z,966.79
2022-09-29T00:54:34.915Z,966.77
2022-09-29T00:55:34.914Z,966.79
2022-09-29T00:56:34.893Z,966.79
2022-09-29T00:57:34.897Z,966.79
2022-09-29T00:58:35.816Z,966.80
2022-09-29T00:59:34.875Z,966.75
2022-09-29T01:00:34.889Z,966.73
2022-09-29T01:01:34.868Z,966.76
2022-09-29T01:02:35.144Z,966.73
2022-09-29T01:03:34.824Z,966.76
2022-09-29T01:04:34.795Z,966.73
2022-09-29T01:05:34.793Z,966.72
2022-09-29T01:06:34.773Z,966.70
2022-09-29T01:07:34.808Z,966.76
2022-09-29T01:08:34.754Z,966.73
2022-09-29T01:09:34.752Z,966.73
2022-09-29T01:10:34.723Z,966.74
2022-09-29T01:11:34.733Z,966.79
2022-09-29T01:12:34.710Z,966.75
2022-09-29T01:13:35.213Z,966.72
2022-09-29T01:14:34.682Z,966.73
2022-09-29T01:15:34.681Z,966.76
2022-09-29T01:16:34.746Z,966.74
2022-09-29T01:17:35.273Z,966.75
2022-09-29T01:18:35.433Z,966.73
2022-09-29T01:19:34.684Z,966.76
2022-09-29T01:20:34.632Z,966.78
2022-09-29T01:21:34.612Z,966.77
2022-09-29T01:22:34.603Z,966.80
2022-09-29T01:23:34.583Z,966.82
2022-09-29T01:24:34.582Z,966.82
2022-09-29T01:25:34.572Z,966.82
2022-09-29T01:26:34.563Z,966.78
2022-09-29T01:27:34.532Z,966.81
2022-09-29T01:28:34.539Z,966.82
2022-09-29T01:29:34.515Z,966.80
2022-09-29T01:30:34.512Z,966.89
2022-09-29T01:31:34.525Z,966.90
2022-09-29T01:32:34.497Z,966.88
2022-09-29T01:33:34.471Z,966.88
2022-09-29T01:34:34.481Z,966.87
2022-09-29T01:35:34.451Z,966.89
2022-09-29T01:36:34.451Z,966.92
2022-09-29T01:37:34.422Z,966.91
2022-09-29T01:38:34.473Z,966.92
2022-09-29T01:39:34.412Z,966.97
2022-09-29T01:40:34.535Z,966.93
2022-09-29T01:41:34.401Z,966.95
2022-09-29T01:42:34.383Z,966.97
2022-09-29T01:43:34.352Z,967.05
2022-09-29T01:44:34.360Z,966.97
2022-09-29T01:45:34.360Z,967.02
2022-09-29T01:46:34.334Z,966.99
2022-09-29T01:47:34.301Z,967.02
2022-09-29T01:48:34.322Z,967.01
2022-09-29T01:49:34.281Z,967.02
2022-09-29T01:50:34.290Z,966.98
2022-09-29T01:51:34.270Z,966.97
2022-09-29T01:52:34.261Z,966.95
2022-09-29T01:53:34.248Z,966.98
2022-09-29T01:54:34.251Z,966.98
2022-09-29T01:55:34.221Z,966.99
2022-09-29T01:56:34.240Z,966.97
2022-09-29T01:57:34.201Z,966.99
2022-09-29T01:58:34.191Z,966.98
2022-09-29T01:59:34.868Z,966.98
2022-09-29T02:00:34.234Z,966.96
2022-09-29T02:01:34.150Z,966.97
2022-09-29T02:02:34.203Z,966.98
2022-09-29T02:03:34.120Z,966.96
2022-09-29T02:04:34.129Z,967.00
2022-09-29T02:05:34.166Z,966.99
2022-09-29T02:06:34.109Z,966.96
2022-09-29T02:07:34.079Z,966.97
2022-09-29T02:08:34.080Z,966.94
2022-09-29T02:09:34.062Z,966.96
2022-09-29T02:10:34.070Z,967.00
2022-09-29T02:11:34.061Z,966.95
2022-09-29T02:12:34.041Z,966.93
2022-09-29T02:13:34.020Z,966.92
2022-09-29T02:14:34.019Z,966.95
2022-09-29T02:15:33.989Z,966.93
2022-09-29T02:16:34.034Z,966.95
2022-09-29T02:17:33.968Z,966.97
2022-09-29T02:18:33.970Z,966.95
2022-09-29T02:19:34.168Z,966.94
2022-09-29T02:20:34.874Z,966.98
2022-09-29T02:21:33.930Z,967.01
2022-09-29T02:22:33.928Z,967.00
2022-09-29T02:23:33.898Z,967.00
2022-09-29T02:24:33.896Z,966.99
2022-09-29T02:25:33.879Z,966.96
2022-09-29T02:26:33.886Z,966.96
2022-09-29T02:27:33.860Z,966.93
2022-09-29T02:28:33.850Z,966.94
2022-09-29T02:29:33.827Z,966.89
2022-09-29T02:30:33.838Z,966.95
2022-09-29T02:31:33.856Z,966.93
2022-09-29T02:32:33.808Z,966.87
2022-09-29T02:33:33.790Z,966.87
2022-09-29T02:34:33.788Z,966.89
2022-09-29T02:35:33.768Z,966.94
2022-09-29T02:36:33.787Z,966.93
2022-09-29T02:37:34.518Z,966.94
2022-09-29T02:38:33.748Z,966.95
2022-09-29T02:39:33.730Z,966.96
2022-09-29T02:40:34.525Z,967.01
2022-09-29T02:41:34.700Z,966.95
2022-09-29T02:42:33.725Z,967.01
2022-09-29T02:43:33.689Z,967.01
2022-09-29T02:44:33.679Z,967.00
2022-09-29T02:45:33.691Z,966.99
2022-09-29T02:46:33.648Z,967.01
2022-09-29T02:47:33.637Z,967.02
2022-09-29T02:48:33.641Z,967.01
2022-09-29T02:49:33.606Z,967.00
2022-09-29T02:50:33.606Z,967.07
2022-09-29T02:51:33.576Z,967.06
2022-09-29T02:52:33.594Z,967.02
2022-09-29T02:53:33.567Z,967.04
2022-09-29T02:54:33.576Z,967.02
2022-09-29T02:55:33.536Z,967.08
2022-09-29T02:56:33.545Z,967.00
2022-09-29T02:57:33.552Z,967.05
2022-09-29T02:58:33.525Z,967.03
2022-09-29T02:59:33.987Z,967.06
2022-09-29T03:00:34.405Z,967.06
2022-09-29T03:01:33.479Z,967.06
2022-09-29T03:02:33.478Z,967.08
2022-09-29T03:03:33.524Z,967.11
2022-09-29T03:04:33.468Z,967.09
2022-09-29T03:05:33.448Z,967.07
2022-09-29T03:06:33.454Z,967.09
2022-09-29T03:07:33.434Z,967.08
2022-09-29T03:08:33.425Z,967.08
2022-09-29T03:09:33.395Z,967.08
2022-09-29T03:10:33.505Z,967.05
2022-09-29T03:11:33.367Z,967.07
2022-09-29T03:12:33.374Z,967.03
2022-09-29T03:13:33.344Z,967.10
2022-09-29T03:14:33.437Z,967.06
2022-09-29T03:15:33.327Z,967.04
2022-09-29T03:16:33.401Z,967.07
2022-09-29T03:17:33.304Z,967.05
2022-09-29T03:18:33.307Z,967.05
2022-09-29T03:19:33.274Z,967.04
2022-09-29T03:20:33.284Z,967.04
2022-09-29T03:21:33.264Z,967.03
2022-09-29T03:22:33.254Z,967.03
2022-09-29T03:23:33.236Z,967.05
2022-09-29T03:24:33.244Z,967.03
2022-09-29T03:25:33.214Z,967.01
2022-09-29T03:26:33.376Z,967.03
2022-09-29T03:27:33.197Z,967.02
2022-09-29T03:28:33.194Z,967.01
2022-09-29T03:29:33.163Z,967.03
2022-09-29T03:30:33.181Z,967.05
2022-09-29T03:31:33.206Z,967.11
2022-09-29T03:32:33.144Z,967.10
2022-09-29T03:33:33.122Z,967.11
2022-09-29T03:34:33.124Z,967.13
2022-09-29T03:35:33.103Z,967.12
2022-09-29T03:36:33.103Z,967.13
2022-09-29T03:37:33.083Z,967.11
2022-09-29T03:38:33.082Z,967.12
2022-09-29T03:39:33.053Z,967.16
2022-09-29T03:40:33.092Z,967.16
2022-09-29T03:41:33.054Z,967.14
2022-09-29T03:42:33.050Z,967.17
2022-09-29T03:43:33.013Z,967.17
2022-09-29T03:44:33.012Z,967.18
2022-09-29T03:45:33.111Z,967.16
2022-09-29T03:46:32.994Z,967.19
2022-09-29T03:47:32.962Z,967.20
2022-09-29T03:48:32.972Z,967.19
2022-09-29T03:49:32.943Z,967.18
2022-09-29T03:50:32.952Z,967.21
2022-09-29T03:51:32.930Z,967.21
2022-09-29T03:52:32.941Z,967.20
2022-09-29T03:53:32.901Z,967.20
2022-09-29T03:54:32.910Z,967.20
2022-09-29T03:55:32.889Z,967.22
2022-09-29T03:56:32.882Z,967.19
2022-09-29T03:57:32.865Z,967.26
2022-09-29T03:58:32.861Z,967.21
2022-09-29T03:59:32.842Z,967.19
2022-09-29T04:00:32.883Z,967.22
2022-09-29T04:01:33.281Z,967.25
2022-09-29T04:02:32.841Z,967.26
2022-09-29T04:03:32.793Z,967.30
2022-09-29T04:04:32.800Z,967.24
2022-09-29T04:05:32.781Z,967.24
2022-09-29T04:06:32.784Z,967.26
2022-09-29T04:07:32.760Z,967.26
2022-09-29T04:08:32.752Z,967.27
2022-09-29T04:09:32.731Z,967.31
2022-09-29T04:10:32.730Z,967.32
2022-09-29T04:11:32.701Z,967.29
2022-09-29T04:12:32.738Z,967.35
2022-09-29T04:13:32.695Z,967.35
2022-09-29T04:14:32.690Z,967.38
2022-09-29T04:15:32.676Z,967.33
2022-09-29T04:16:32.746Z,967.37
2022-09-29T04:17:32.640Z,967.41
2022-09-29T04:18:32.680Z,967.37
2022-09-29T04:19:32.631Z,967.37
2022-09-29T04:20:32.627Z,967.36
2022-09-29T04:21:32.611Z,967.38
2022-09-29T04:22:32.700Z,967.41
2022-09-29T04:23:32.589Z,967.43
2022-09-29T04:24:32.608Z,967.36
2022-09-29T04:25:32.560Z,967.41
2022-09-29T04:26:32.560Z,967.42
2022-09-29T04:27:32.541Z,967.45
2022-09-29T04:28:32.540Z,967.41
2022-09-29T04:29:32.510Z,967.46
2022-09-29T04:30:32.519Z,967.45
2022-09-29T04:31:32.582Z,967.44
2022-09-29T04:32:32.500Z,967.45
2022-09-29T04:33:32.468Z,967.41
2022-09-29T04:34:32.469Z,967.47
2022-09-29T04:35:36.627Z,967.42
2022-09-29T04:36:32.449Z,967.47
2022-09-29T04:37:32.428Z,967.44
2022-09-29T04:38:32.428Z,967.43
2022-09-29T04:39:32.427Z,967.45
2022-09-29T04:40:32.647Z,967.40
2022-09-29T04:41:32.387Z,967.41
2022-09-29T04:42:33.262Z,967.46
2022-09-29T04:43:32.379Z,967.43
2022-09-29T04:44:32.369Z,967.49
2022-09-29T04:45:33.285Z,967.43
2022-09-29T04:46:32.337Z,967.44
2022-09-29T04:47:32.316Z,967.45
2022-09-29T04:48:35.580Z,967.44
2022-09-29T04:49:32.396Z,967.42
2022-09-29T04:50:32.297Z,967.43
2022-09-29T04:51:32.276Z,967.44
2022-09-29T04:52:32.284Z,967.46
2022-09-29T04:53:32.248Z,967.48
2022-09-29T04:54:37.478Z,967.44
2022-09-29T04:55:33.227Z,967.45
2022-09-29T04:56:32.236Z,967.43
2022-09-29T04:57:32.207Z,967.42
2022-09-29T04:58:32.208Z,967.49
2022-09-29T04:59:32.198Z,967.46
2022-09-29T05:00:32.274Z,967.44
2022-09-29T05:01:32.157Z,967.49
2022-09-29T05:02:32.229Z,967.51
2022-09-29T05:03:33.035Z,967.51
2022-09-29T05:04:32.169Z,967.50
2022-09-29T05:05:32.166Z,967.48
2022-09-29T05:06:32.127Z,967.55
2022-09-29T05:07:32.125Z,967.54
2022-09-29T05:08:32.105Z,967.51
2022-09-29T05:09:33.747Z,967.52
2022-09-29T05:10:32.126Z,967.54
2022-09-29T05:11:32.066Z,967.53
2022-09-29T05:12:32.056Z,967.58
2022-09-29T05:13:32.027Z,967.58
2022-09-29T05:14:32.035Z,967.58
2022-09-29T05:15:32.014Z,967.57
2022-09-29T05:16:32.086Z,967.56
2022-09-29T05:17:31.995Z,967.58
2022-09-29T05:18:31.995Z,967.61
2022-09-29T05:19:31.966Z,967.58
2022-09-29T05:20:39.871Z,967.61
2022-09-29T05:21:32.976Z,967.61
2022-09-29T05:22:32.058Z,967.61
2022-09-29T05:23:31.932Z,967.62
2022-09-29T05:24:31.954Z,967.64
2022-09-29T05:25:31.937Z,967.62
2022-09-29T05:26:31.906Z,967.63
2022-09-29T05:27:31.896Z,967.64
2022-09-29T05:28:31.885Z,967.62
2022-09-29T05:29:31.945Z,967.67
2022-09-29T05:30:31.863Z,967.67
2022-09-29T05:31:31.905Z,967.63
2022-09-29T05:32:31.824Z,967.71
2022-09-29T05:33:31.833Z,967.68
2022-09-29T05:34:31.818Z,967.65
2022-09-29T05:35:31.811Z,967.69
2022-09-29T05:36:31.788Z,967.68
2022-09-29T05:37:31.783Z,967.70
2022-09-29T05:38:31.753Z,967.71
2022-09-29T05:39:31.763Z,967.71
2022-09-29T05:40:31.778Z,967.75
2022-09-29T05:41:31.744Z,967.74
2022-09-29T05:42:31.713Z,967.73
2022-09-29T05:43:31.723Z,967.75
2022-09-29T05:44:32.425Z,967.73
2022-09-29T05:45:32.381Z,967.76
2022-09-29T05:46:31.702Z,967.76
2022-09-29T05:47:31.684Z,967.77
2022-09-29T05:48:31.745Z,967.78
2022-09-29T05:49:31.673Z,967.78
2022-09-29T05:50:31.623Z,967.79
2022-09-29T05:51:31.635Z,967.77
2022-09-29T05:52:31.662Z,967.79
2022-09-29T05:53:31.613Z,967.80
2022-09-29T05:54:31.591Z,967.82
2022-09-29T05:55:31.591Z,967.77
2022-09-29T05:56:31.562Z,967.80
2022-09-29T05:57:31.698Z,967.83
2022-09-29T05:58:31.542Z,967.80
2022-09-29T05:59:31.571Z,967.80
2022-09-29T06:00:31.583Z,967.82
2022-09-29T06:01:31.563Z,967.81
2022-09-29T06:02:31.521Z,967.81
2022-09-29T06:03:31.500Z,967.86
2022-09-29T06:04:31.692Z,967.86
2022-09-29T06:05:32.211Z,967.87
2022-09-29T06:06:31.463Z,967.88
2022-09-29T06:07:31.465Z,967.88
2022-09-29T06:08:31.432Z,967.89
2022-09-29T06:09:31.430Z,967.89
2022-09-29T06:10:31.411Z,967.94
2022-09-29T06:11:31.412Z,967.92
2022-09-29T06:12:31.391Z,967.92
2022-09-29T06:13:31.400Z,967.92
2022-09-29T06:14:31.382Z,967.89
2022-09-29T06:15:31.369Z,967.92
2022-09-29T06:16:31.386Z,967.93
2022-09-29T06:17:31.595Z,967.96
2022-09-29T06:18:31.382Z,967.94
2022-09-29T06:19:31.338Z,967.92
2022-09-29T06:20:31.317Z,967.87
2022-09-29T06:21:31.299Z,967.91
2022-09-29T06:22:31.403Z,967.91
2022-09-29T06:23:31.444Z,967.88
2022-09-29T06:24:32.180Z,967.92
2022-09-29T06:25:32.114Z,967.94
2022-09-29T06:26:31.279Z,967.91
2022-09-29T06:27:32.243Z,967.96
2022-09-29T06:28:32.051Z,967.92
2022-09-29T06:29:31.948Z,967.91
2022-09-29T06:30:31.218Z,967.97
2022-09-29T06:31:31.240Z,967.99
2022-09-29T06:32:31.170Z,968.00
2022-09-29T06:33:31.168Z,967.97
2022-09-29T06:34:31.149Z,967.96
2022-09-29T06:35:31.183Z,968.01
2022-09-29T06:36:31.129Z,967.99
2022-09-29T06:37:31.137Z,968.04
2022-09-29T06:38:31.105Z,968.08
2022-09-29T06:39:31.107Z,968.05
2022-09-29T06:40:31.253Z,968.02
2022-09-29T06:41:31.162Z,967.99
2022-09-29T06:42:31.067Z,968.02
2022-09-29T06:43:31.068Z,968.03
2022-09-29T06:44:31.038Z,968.02
2022-09-29T06:45:31.112Z,968.00
2022-09-29T06:46:31.038Z,968.01
2022-09-29T06:47:31.435Z,968.03
2022-09-29T06:48:31.012Z,968.03
2022-09-29T06:49:31.027Z,968.03
2022-09-29T06:50:31.014Z,968.03
2022-09-29T06:51:44.316Z,968.04
2022-09-29T06:52:31.989Z,968.07
2022-09-29T06:53:37.002Z,968.09
2022-09-29T06:54:31.927Z,968.11
2022-09-29T06:55:30.942Z,968.15
2022-09-29T06:56:30.907Z,968.13
2022-09-29T06:57:31.816Z,968.14
2022-09-29T06:58:31.007Z,968.15
2022-09-29T06:59:30.915Z,968.13
2022-09-29T07:00:30.889Z,968.10
2022-09-29T07:01:30.913Z,968.12
2022-09-29T07:02:30.927Z,968.10
2022-09-29T07:03:30.887Z,968.14
2022-09-29T07:04:30.817Z,968.12
2022-09-29T07:05:31.569Z,968.13
2022-09-29T07:06:31.497Z,968.15
2022-09-29T07:07:30.806Z,968.15
2022-09-29T07:08:30.795Z,968.10
2022-09-29T07:09:30.815Z,968.11
2022-09-29T07:10:30.768Z,968.09
2022-09-29T07:11:30.757Z,968.08
2022-09-29T07:12:30.738Z,968.10
2022-09-29T07:13:31.018Z,968.12
2022-09-29T07:14:30.706Z,968.13
2022-09-29T07:15:30.728Z,968.06
2022-09-29T07:16:30.707Z,968.09
2022-09-29T07:17:30.699Z,968.06
2022-09-29T07:18:30.667Z,968.07
2022-09-29T07:19:30.780Z,968.06
2022-09-29T07:20:30.665Z,968.13
2022-09-29T07:21:30.645Z,968.07
2022-09-29T07:22:32.855Z,968.10
2022-09-29T07:23:30.626Z,968.11
2022-09-29T07:24:30.625Z,968.10
2022-09-29T07:25:50.983Z,968.15
2022-09-29T07:26:32.367Z,968.11
2022-09-29T07:27:31.326Z,968.12
2022-09-29T07:28:30.557Z,968.16
2022-09-29T07:29:30.575Z,968.11
2022-09-29T07:30:39.169Z,968.10
2022-09-29T07:31:41.831Z,968.15
2022-09-29T07:32:31.659Z,968.13
2022-09-29T07:33:38.190Z,968.14
2022-09-29T07:34:31.484Z,968.14
2022-09-29T07:35:30.795Z,968.16
2022-09-29T07:36:30.460Z,968.18
2022-09-29T07:37:30.467Z,968.17
2022-09-29T07:38:30.434Z,968.17
2022-09-29T07:39:30.433Z,968.21
2022-09-29T07:40:30.439Z,968.16
2022-09-29T07:41:30.422Z,968.17
2022-09-29T07:42:30.386Z,968.18
2022-09-29T07:43:30.417Z,968.19
2022-09-29T07:44:30.372Z,968.14
2022-09-29T07:45:30.892Z,968.18
2022-09-29T07:46:31.243Z,968.20
2022-09-29T07:47:31.116Z,968.20
2022-09-29T07:48:32.064Z,968.20
2022-09-29T07:49:30.323Z,968.21
2022-09-29T07:50:33.198Z,968.19
2022-09-29T07:51:30.353Z,968.20
2022-09-29T07:52:30.293Z,968.21
2022-09-29T07:53:30.296Z,968.21
2022-09-29T07:54:30.385Z,968.25
2022-09-29T07:55:30.275Z,968.22
2022-09-29T07:56:30.246Z,968.21
2022-09-29T07:57:30.252Z,968.23
2022-09-29T07:58:30.233Z,968.18
2022-09-29T07:59:30.263Z,968.21
2022-09-29T08:00:30.214Z,968.22
2022-09-29T08:01:30.313Z,968.18
2022-09-29T08:02:30.256Z,968.21
2022-09-29T08:03:30.242Z,968.21
2022-09-29T08:04:30.182Z,968.20
2022-09-29T08:05:30.156Z,968.22
2022-09-29T08:06:30.122Z,968.25
2022-09-29T08:07:30.991Z,968.27
2022-09-29T08:08:30.124Z,968.26
2022-09-29T08:09:39.109Z,968.29
2022-09-29T08:10:31.200Z,968.27
2022-09-29T08:11:32.360Z,968.29
2022-09-29T08:12:40.795Z,968.31
2022-09-29T08:13:31.094Z,968.32
2022-09-29T08:14:30.042Z,968.29
2022-09-29T08:15:30.042Z,968.31
2022-09-29T08:16:30.184Z,968.32
2022-09-29T08:17:30.011Z,968.31
2022-09-29T08:18:29.983Z,968.29
2022-09-29T08:19:29.993Z,968.31
2022-09-29T08:20:29.962Z,968.25
2022-09-29T08:21:29.974Z,968.29
2022-09-29T08:22:29.953Z,968.29
2022-09-29T08:23:29.964Z,968.29
2022-09-29T08:24:29.927Z,968.28
2022-09-29T08:25:29.922Z,968.31
2022-09-29T08:26:40.085Z,968.36
2022-09-29T08:27:31.123Z,968.33
2022-09-29T08:28:32.298Z,968.36
2022-09-29T08:29:39.512Z,968.34
2022-09-29T08:30:31.604Z,968.36
2022-09-29T08:31:29.908Z,968.39
2022-09-29T08:32:29.850Z,968.39
2022-09-29T08:33:29.844Z,968.35
2022-09-29T08:34:29.821Z,968.33
2022-09-29T08:35:29.840Z,968.35
2022-09-29T08:36:29.812Z,968.38
2022-09-29T08:37:34.338Z,968.42
2022-09-29T08:38:30.769Z,968.43
2022-09-29T08:39:29.793Z,968.42
2022-09-29T08:40:29.794Z,968.45
2022-09-29T08:41:29.791Z,968.53
2022-09-29T08:42:36.136Z,968.48
2022-09-29T08:43:34.785Z,968.48
2022-09-29T08:44:37.681Z,968.52
2022-09-29T08:45:30.754Z,968.49
2022-09-29T08:46:34.957Z,968.55
2022-09-29T08:47:44.420Z,968.48
2022-09-29T08:48:30.663Z,968.53
2022-09-29T08:49:33.278Z,968.54
2022-09-29T08:50:29.635Z,968.53
2022-09-29T08:51:40.343Z,968.57
2022-09-29T08:52:33.331Z,968.52
2022-09-29T08:53:30.618Z,968.57
2022-09-29T08:54:37.886Z,968.56
2022-09-29T08:55:30.590Z,968.59
2022-09-29T08:56:29.560Z,968.60
2022-09-29T08:57:29.571Z,968.63
2022-09-29T08:58:29.540Z,968.62
2022-09-29T08:59:29.541Z,968.60
2022-09-29T09:00:29.512Z,968.66
2022-09-29T09:01:29.615Z,968.61
2022-09-29T09:02:29.537Z,968.57
2022-09-29T09:03:29.515Z,968.60
2022-09-29T09:04:29.497Z,968.58
2022-09-29T09:05:29.516Z,968.59
2022-09-29T09:06:29.461Z,968.56
2022-09-29T09:07:29.458Z,968.57
2022-09-29T09:08:29.602Z,968.60
2022-09-29T09:09:30.189Z,968.62
2022-09-29T09:10:30.103Z,968.59
2022-09-29T09:11:29.411Z,968.64
2022-09-29T09:12:29.381Z,968.62
2022-09-29T09:13:29.391Z,968.63
2022-09-29T09:14:29.561Z,968.60
2022-09-29T09:15:29.469Z,968.65
2022-09-29T09:16:29.380Z,968.62
2022-09-29T09:17:29.338Z,968.62
2022-09-29T09:18:29.321Z,968.67
2022-09-29T09:19:29.322Z,968.65
2022-09-29T09:20:30.137Z,968.61
2022-09-29T09:21:29.309Z,968.63
2022-09-29T09:22:29.297Z,968.60
2022-09-29T09:23:29.277Z,968.63
2022-09-29T09:24:29.333Z,968.63
2022-09-29T09:25:30.160Z,968.65
2022-09-29T09:26:29.229Z,968.65
2022-09-29T09:27:29.219Z,968.66
2022-09-29T09:28:29.218Z,968.67
2022-09-29T09:29:33.832Z,968.65
2022-09-29T09:30:30.991Z,968.63
2022-09-29T09:31:29.189Z,968.62
2022-09-29T09:32:29.159Z,968.62
2022-09-29T09:33:31.714Z,968.64
2022-09-29T09:34:41.110Z,968.61
2022-09-29T09:35:30.138Z,968.63
2022-09-29T09:36:34.042Z,968.62
2022-09-29T09:37:30.110Z,968.62
2022-09-29T09:38:29.110Z,968.64
2022-09-29T09:39:29.089Z,968.63
2022-09-29T09:40:29.068Z,968.64
2022-09-29T09:41:32.198Z,968.59
2022-09-29T09:42:30.068Z,968.61
2022-09-29T09:43:29.049Z,968.62
2022-09-29T09:44:29.018Z,968.65
2022-09-29T09:45:29.021Z,968.61
2022-09-29T09:46:33.797Z,968.63
2022-09-29T09:47:29.988Z,968.65
2022-09-29T09:48:31.843Z,968.62
2022-09-29T09:49:28.998Z,968.65
2022-09-29T09:50:28.988Z,968.60
2022-09-29T09:51:28.948Z,968.60
2022-09-29T09:52:28.950Z,968.62
2022-09-29T09:53:28.931Z,968.61
2022-09-29T09:54:28.929Z,968.59
2022-09-29T09:55:28.930Z,968.54
2022-09-29T09:56:28.908Z,968.58
2022-09-29T09:57:28.888Z,968.55
2022-09-29T09:58:28.881Z,968.55
2022-09-29T09:59:28.869Z,968.58
2022-09-29T10:00:28.910Z,968.59
2022-09-29T10:01:28.899Z,968.57
2022-09-29T10:02:28.865Z,968.50
2022-09-29T10:03:28.822Z,968.50
2022-09-29T10:04:28.824Z,968.50
2022-09-29T10:05:28.799Z,968.52
2022-09-29T10:06:28.799Z,968.49
2022-09-29T10:07:28.776Z,968.54
2022-09-29T10:08:28.769Z,968.57
2022-09-29T10:09:29.584Z,968.55
2022-09-29T10:10:28.769Z,968.50
2022-09-29T10:11:28.730Z,968.53
2022-09-29T10:12:28.738Z,968.55
2022-09-29T10:13:28.733Z,968.57
2022-09-29T10:14:28.717Z,968.59
2022-09-29T10:15:29.057Z,968.61
2022-09-29T10:16:28.752Z,968.57
2022-09-29T10:17:28.715Z,968.61
2022-09-29T10:18:28.718Z,968.60
2022-09-29T10:19:28.691Z,968.61
2022-09-29T10:20:28.638Z,968.62
2022-09-29T10:21:28.628Z,968.62
2022-09-29T10:22:28.617Z,968.59
2022-09-29T10:23:28.603Z,968.59
2022-09-29T10:24:28.636Z,968.57
2022-09-29T10:25:28.577Z,968.63
2022-09-29T10:26:28.577Z,968.61
2022-09-29T10:27:28.548Z,968.57
2022-09-29T10:28:28.560Z,968.59
2022-09-29T10:29:28.761Z,968.61
2022-09-29T10:30:29.339Z,968.61
2022-09-29T10:31:28.742Z,968.65
2022-09-29T10:32:28.510Z,968.66
2022-09-29T10:33:28.480Z,968.66
2022-09-29T10:34:28.489Z,968.65
2022-09-29T10:35:28.459Z,968.67
2022-09-29T10:36:28.459Z,968.71
2022-09-29T10:37:28.439Z,968.67
2022-09-29T10:38:28.441Z,968.64
2022-09-29T10:39:28.419Z,968.65
2022-09-29T10:40:29.404Z,968.66
2022-09-29T10:41:28.401Z,968.70
2022-09-29T10:42:28.681Z,968.70
2022-09-29T10:43:28.368Z,968.71
2022-09-29T10:44:28.367Z,968.72
2022-09-29T10:45:28.340Z,968.72
2022-09-29T10:46:28.379Z,968.72
2022-09-29T10:47:28.319Z,968.72
2022-09-29T10:48:28.390Z,968.71
2022-09-29T10:49:28.308Z,968.74
2022-09-29T10:50:30.992Z,968.73
2022-09-29T10:51:30.120Z,968.69
2022-09-29T10:52:28.290Z,968.68
2022-09-29T10:53:28.250Z,968.71
2022-09-29T10:54:28.258Z,968.71
2022-09-29T10:55:28.240Z,968.73
2022-09-29T10:56:28.230Z,968.70
2022-09-29T10:57:28.209Z,968.65
2022-09-29T10:58:44.421Z,968.72
2022-09-29T10:59:29.200Z,968.70
2022-09-29T11:00:28.191Z,968.67
2022-09-29T11:01:28.166Z,968.71
2022-09-29T11:02:28.251Z,968.73
2022-09-29T11:03:28.139Z,968.73
2022-09-29T11:04:28.147Z,968.74
2022-09-29T11:05:28.129Z,968.72
2022-09-29T11:06:28.121Z,968.75
2022-09-29T11:07:28.102Z,968.75
2022-09-29T11:08:28.121Z,968.73
2022-09-29T11:09:28.176Z,968.72
2022-09-29T11:10:28.078Z,968.71
2022-09-29T11:11:28.303Z,968.72
2022-09-29T11:12:28.156Z,968.71
2022-09-29T11:13:28.029Z,968.72
2022-09-29T11:14:28.039Z,968.72
2022-09-29T11:15:28.230Z,968.72
2022-09-29T11:16:28.065Z,968.75
2022-09-29T11:17:28.051Z,968.71
2022-09-29T11:18:28.369Z,968.74
2022-09-29T11:19:27.969Z,968.72
2022-09-29T11:20:27.970Z,968.68
2022-09-29T11:21:27.951Z,968.76
2022-09-29T11:22:27.959Z,968.71
2022-09-29T11:23:27.926Z,968.76
2022-09-29T11:24:27.930Z,968.78
2022-09-29T11:25:27.900Z,968.78
2022-09-29T11:26:27.907Z,968.75
2022-09-29T11:27:27.879Z,968.76
2022-09-29T11:28:28.319Z,968.76
2022-09-29T11:29:27.870Z,968.76
2022-09-29T11:30:27.894Z,968.82
2022-09-29T11:31:27.850Z,968.77
2022-09-29T11:32:28.759Z,968.81
2022-09-29T11:33:27.819Z,968.79
2022-09-29T11:34:27.819Z,968.75
2022-09-29T11:35:27.791Z,968.78
2022-09-29T11:36:27.859Z,968.76
2022-09-29T11:37:27.760Z,968.75
2022-09-29T11:38:27.771Z,968.74
2022-09-29T11:39:27.741Z,968.73
2022-09-29T11:40:28.090Z,968.76
2022-09-29T11:41:27.739Z,968.77
2022-09-29T11:42:27.730Z,968.79
2022-09-29T11:43:27.700Z,968.78
2022-09-29T11:44:27.699Z,968.80
2022-09-29T11:45:27.690Z,968.81
2022-09-29T11:46:27.683Z,968.83
2022-09-29T11:47:27.660Z,968.81
2022-09-29T11:48:30.014Z,968.76
2022-09-29T11:49:27.642Z,968.78
2022-09-29T11:50:27.642Z,968.77
2022-09-29T11:51:27.858Z,968.76
2022-09-29T11:52:28.331Z,968.73
2022-09-29T11:53:27.621Z,968.75
2022-09-29T11:54:28.000Z,968.76
2022-09-29T11:55:27.560Z,968.75
2022-09-29T11:56:27.579Z,968.76
2022-09-29T11:57:27.556Z,968.77
2022-09-29T11:58:27.541Z,968.79
2022-09-29T11:59:27.520Z,968.80
2022-09-29T12:00:27.520Z,968.79
2022-09-29T12:01:27.509Z,968.73
2022-09-29T12:02:27.642Z,968.72
2022-09-29T12:03:27.504Z,968.75
2022-09-29T12:04:27.480Z,968.78
2022-09-29T12:05:27.460Z,968.76
2022-09-29T12:06:27.451Z,968.76
2022-09-29T12:07:27.440Z,968.73
2022-09-29T12:08:27.439Z,968.75
2022-09-29T12:09:27.450Z,968.75
2022-09-29T12:10:27.442Z,968.79
2022-09-29T12:11:54.929Z,968.76
2022-09-29T12:12:28.388Z,968.75
2022-09-29T12:13:28.115Z,968.78
2022-09-29T12:14:27.380Z,968.79
2022-09-29T12:15:27.508Z,968.73
2022-09-29T12:16:28.170Z,968.73
2022-09-29T12:17:27.735Z,968.72
2022-09-29T12:18:27.326Z,968.76
2022-09-29T12:19:27.302Z,968.77
2022-09-29T12:20:27.302Z,968.78
2022-09-29T12:21:27.286Z,968.77
2022-09-29T12:22:27.368Z,968.75
2022-09-29T12:23:27.262Z,968.73
2022-09-29T12:24:27.273Z,968.76
2022-09-29T12:25:27.232Z,968.76
2022-09-29T12:26:27.241Z,968.78
2022-09-29T12:27:27.215Z,968.78
2022-09-29T12:28:27.240Z,968.73